createdAt,value
2022-07-26T00:00:32.937Z,70.51
2022-07-26T00:01:35.739Z,70.43
2022-07-26T00:02:38.762Z,70.25
2022-07-26T00:03:43.337Z,70.21
2022-07-26T00:04:46.023Z,70.05
2022-07-26T00:05:48.741Z,69.76
2022-07-26T00:06:51.652Z,69.88
2022-07-26T00:07:54.700Z,69.86
2022-07-26T00:08:57.496Z,69.67
2022-07-26T00:10:00.244Z,69.68
2022-07-26T00:11:07.025Z,69.62
2022-07-26T00:12:08.548Z,69.67
2022-07-26T00:13:11.343Z,69.59
2022-07-26T00:14:14.142Z,69.57
2022-07-26T00:15:16.871Z,69.81
2022-07-26T00:16:20.660Z,69.82
2022-07-26T00:17:23.678Z,70.06
2022-07-26T00:18:26.433Z,70.41
2022-07-26T00:19:29.023Z,70.84
2022-07-26T00:20:32.579Z,71.18
2022-07-26T00:21:36.649Z,71.29
2022-07-26T00:22:41.274Z,71.59
2022-07-26T00:23:44.196Z,71.82
2022-07-26T00:24:46.983Z,71.91
2022-07-26T00:25:49.658Z,71.86
2022-07-26T00:26:52.452Z,71.92
2022-07-26T00:27:55.350Z,71.83
2022-07-26T00:28:58.184Z,71.93
2022-07-26T00:31:11.816Z,71.77
2022-07-26T00:32:14.588Z,71.68
2022-07-26T00:33:17.168Z,71.68
2022-07-26T00:34:19.853Z,71.68
2022-07-26T00:35:22.577Z,71.65
2022-07-26T00:36:25.771Z,71.64
2022-07-26T00:38:39.036Z,71.59
2022-07-26T00:39:41.625Z,71.33
2022-07-26T00:40:44.521Z,71.29
2022-07-26T00:41:47.615Z,71.31
2022-07-26T00:42:50.818Z,71.37
2022-07-26T00:43:57.868Z,71.28
2022-07-26T00:45:00.481Z,71.35
2022-07-26T00:46:03.531Z,71.22
2022-07-26T00:47:06.407Z,71.02
2022-07-26T00:48:09.118Z,71.16
2022-07-26T00:49:12.616Z,70.98
2022-07-26T00:50:18.730Z,71.09
2022-07-26T00:51:21.785Z,70.99
2022-07-26T00:52:24.880Z,71.05
2022-07-26T00:53:27.577Z,71.13
2022-07-26T00:54:30.199Z,71.17
2022-07-26T00:55:32.980Z,71.16
2022-07-26T00:56:35.911Z,71.10
2022-07-26T00:57:38.813Z,70.95
2022-07-26T00:58:42.625Z,70.97
2022-07-26T00:59:47.261Z,70.76
2022-07-26T01:00:50.102Z,70.79
2022-07-26T01:03:14.441Z,70.71
2022-07-26T01:04:17.009Z,70.59
2022-07-26T01:05:20.980Z,70.62
2022-07-26T01:06:27.366Z,70.59
2022-07-26T01:07:29.095Z,70.66
2022-07-26T01:08:31.866Z,70.65
2022-07-26T01:09:34.550Z,70.31
2022-07-26T01:10:37.545Z,70.50
2022-07-26T01:11:41.560Z,70.62
2022-07-26T01:12:44.677Z,70.49
2022-07-26T01:15:00.384Z,70.52
2022-07-26T01:16:05.340Z,70.44
2022-07-26T01:17:08.002Z,70.35
2022-07-26T01:18:10.703Z,70.51
2022-07-26T01:19:13.603Z,70.60
2022-07-26T01:20:18.139Z,70.72
2022-07-26T01:21:21.124Z,70.77
2022-07-26T01:22:23.928Z,70.81
2022-07-26T01:23:26.602Z,70.71
2022-07-26T01:24:29.275Z,70.67
2022-07-26T01:25:42.397Z,70.57
2022-07-26T01:26:40.996Z,70.56
2022-07-26T01:27:43.587Z,70.66
2022-07-26T01:28:46.221Z,70.51
2022-07-26T01:29:50.898Z,70.64
2022-07-26T01:30:56.608Z,70.64
2022-07-26T01:31:59.343Z,70.73
2022-07-26T01:33:02.020Z,70.75
2022-07-26T01:34:06.788Z,70.68
2022-07-26T01:35:10.085Z,70.77
2022-07-26T01:36:14.582Z,70.79
2022-07-26T01:37:17.166Z,70.79
2022-07-26T01:38:19.756Z,70.76
2022-07-26T01:39:22.816Z,70.80
2022-07-26T01:40:27.317Z,70.82
2022-07-26T01:41:37.261Z,70.93
2022-07-26T01:42:34.670Z,70.98
2022-07-26T01:43:37.569Z,70.96
2022-07-26T01:44:40.245Z,71.17
2022-07-26T01:45:43.086Z,71.20
2022-07-26T01:46:46.161Z,71.22
2022-07-26T01:47:48.727Z,71.37
2022-07-26T01:48:51.485Z,71.36
2022-07-26T01:49:54.167Z,71.43
2022-07-26T01:50:56.952Z,71.49
2022-07-26T01:51:59.532Z,71.61
2022-07-26T01:53:02.207Z,71.61
2022-07-26T01:54:07.162Z,71.67
2022-07-26T01:55:10.204Z,71.73
2022-07-26T01:56:13.623Z,71.62
2022-07-26T01:58:26.991Z,71.55
2022-07-26T01:59:29.654Z,71.69
2022-07-26T02:00:33.026Z,71.61
2022-07-26T02:01:37.984Z,71.59
2022-07-26T02:02:40.669Z,71.63
2022-07-26T02:03:43.506Z,71.68
2022-07-26T02:04:46.075Z,71.67
2022-07-26T02:05:48.878Z,71.49
2022-07-26T02:06:51.710Z,71.51
2022-07-26T02:07:54.718Z,71.43
2022-07-26T02:08:58.724Z,71.54
2022-07-26T02:10:01.547Z,71.55
2022-07-26T02:11:05.154Z,71.57
2022-07-26T02:12:08.193Z,71.61
2022-07-26T02:14:26.057Z,71.41
2022-07-26T02:15:29.034Z,71.25
2022-07-26T02:16:31.925Z,71.29
2022-07-26T02:17:34.560Z,71.36
2022-07-26T02:18:37.358Z,71.46
2022-07-26T02:19:39.946Z,71.55
2022-07-26T02:20:42.741Z,71.56
2022-07-26T02:21:46.759Z,71.55
2022-07-26T02:22:49.657Z,71.56
2022-07-26T02:23:52.553Z,71.70
2022-07-26T02:24:55.237Z,71.68
2022-07-26T02:25:57.929Z,71.52
2022-07-26T02:27:01.219Z,71.52
2022-07-26T02:28:04.740Z,71.63
2022-07-26T02:29:07.344Z,71.72
2022-07-26T02:30:12.098Z,71.72
2022-07-26T02:31:15.407Z,71.86
2022-07-26T02:32:18.592Z,71.87
2022-07-26T02:33:21.281Z,71.81
2022-07-26T02:34:23.945Z,71.93
2022-07-26T02:35:26.622Z,71.73
2022-07-26T02:36:29.402Z,71.71
2022-07-26T02:37:31.981Z,71.55
2022-07-26T02:38:36.565Z,71.33
2022-07-26T02:39:39.240Z,71.35
2022-07-26T02:40:42.237Z,71.31
2022-07-26T02:41:44.910Z,71.33
2022-07-26T02:42:47.706Z,71.30
2022-07-26T02:43:50.274Z,71.31
2022-07-26T02:44:52.874Z,71.28
2022-07-26T02:46:01.749Z,71.16
2022-07-26T02:47:00.328Z,71.17
2022-07-26T02:48:03.395Z,71.15
2022-07-26T02:49:06.107Z,71.16
2022-07-26T02:50:09.709Z,71.09
2022-07-26T02:51:12.396Z,71.16
2022-07-26T02:52:15.070Z,71.10
2022-07-26T02:53:17.661Z,71.20
2022-07-26T02:54:20.349Z,71.42
2022-07-26T02:55:24.601Z,71.44
2022-07-26T02:56:27.450Z,71.42
2022-07-26T02:57:30.023Z,71.43
2022-07-26T02:58:34.710Z,71.44
2022-07-26T02:59:37.383Z,71.32
2022-07-26T03:00:40.387Z,71.41
2022-07-26T03:01:43.228Z,71.40
2022-07-26T03:02:46.644Z,71.35
2022-07-26T03:03:51.032Z,71.32
2022-07-26T03:04:54.026Z,71.50
2022-07-26T03:05:56.776Z,71.24
2022-07-26T03:06:59.674Z,71.33
2022-07-26T03:08:02.827Z,71.16
2022-07-26T03:09:05.513Z,71.13
2022-07-26T03:10:08.839Z,70.95
2022-07-26T03:11:12.304Z,70.76
2022-07-26T03:12:15.163Z,70.63
2022-07-26T03:13:17.863Z,70.70
2022-07-26T03:14:20.449Z,70.78
2022-07-26T03:15:23.957Z,70.74
2022-07-26T03:16:29.662Z,70.41
2022-07-26T03:17:31.237Z,70.39
2022-07-26T03:18:35.244Z,70.33
2022-07-26T03:19:38.046Z,70.26
2022-07-26T03:20:40.837Z,70.39
2022-07-26T03:21:43.525Z,70.24
2022-07-26T03:22:46.215Z,70.08
2022-07-26T03:23:49.047Z,70.20
2022-07-26T03:24:51.631Z,70.13
2022-07-26T03:25:54.319Z,70.18
2022-07-26T03:26:57.173Z,70.15
2022-07-26T03:27:59.841Z,69.85
2022-07-26T03:29:02.501Z,69.66
2022-07-26T03:30:06.252Z,69.42
2022-07-26T03:31:09.052Z,69.10
2022-07-26T03:32:11.749Z,69.15
2022-07-26T03:33:14.460Z,69.05
2022-07-26T03:34:17.635Z,69.00
2022-07-26T03:35:20.437Z,69.03
2022-07-26T03:36:23.432Z,69.32
2022-07-26T03:37:25.997Z,69.32
2022-07-26T03:38:30.625Z,69.22
2022-07-26T03:39:33.200Z,69.55
2022-07-26T03:40:35.954Z,69.34
2022-07-26T03:41:40.556Z,69.71
2022-07-26T03:43:55.098Z,70.06
2022-07-26T03:44:57.888Z,70.11
2022-07-26T03:46:00.795Z,70.61
2022-07-26T03:47:03.890Z,70.76
2022-07-26T03:48:06.691Z,70.95
2022-07-26T03:49:14.575Z,71.09
2022-07-26T03:50:16.002Z,71.07
2022-07-26T03:51:18.814Z,71.02
2022-07-26T03:52:21.386Z,70.87
2022-07-26T03:53:24.079Z,70.64
2022-07-26T03:54:27.367Z,70.85
2022-07-26T03:55:29.946Z,70.68
2022-07-26T03:56:32.943Z,70.28
2022-07-26T03:57:35.747Z,70.51
2022-07-26T03:58:38.458Z,70.16
2022-07-26T03:59:41.258Z,69.99
2022-07-26T04:00:45.231Z,69.69
2022-07-26T04:01:47.976Z,69.42
2022-07-26T04:02:50.958Z,69.18
2022-07-26T04:03:53.712Z,68.80
2022-07-26T04:04:56.811Z,68.57
2022-07-26T04:05:59.506Z,68.80
2022-07-26T04:07:03.148Z,68.49
2022-07-26T04:08:06.498Z,68.31
2022-07-26T04:09:09.180Z,68.13
2022-07-26T04:10:12.381Z,68.61
2022-07-26T04:11:15.051Z,68.82
2022-07-26T04:12:17.652Z,68.78
2022-07-26T04:13:20.622Z,68.85
2022-07-26T04:14:23.292Z,68.95
2022-07-26T04:15:25.874Z,68.73
2022-07-26T04:16:28.731Z,68.83
2022-07-26T04:17:40.297Z,69.08
2022-07-26T04:18:43.139Z,68.67
2022-07-26T04:19:45.901Z,68.84
2022-07-26T04:20:48.877Z,69.10
2022-07-26T04:21:51.557Z,69.00
2022-07-26T04:22:54.236Z,68.94
2022-07-26T04:23:57.417Z,68.80
2022-07-26T04:25:00.104Z,68.66
2022-07-26T04:26:03.252Z,68.63
2022-07-26T04:27:06.018Z,68.83
2022-07-26T04:28:09.703Z,68.72
2022-07-26T04:29:12.447Z,68.62
2022-07-26T04:30:15.943Z,68.80
2022-07-26T04:31:18.829Z,68.69
2022-07-26T04:32:21.579Z,68.75
2022-07-26T04:33:24.665Z,68.66
2022-07-26T04:35:37.885Z,68.70
2022-07-26T04:36:40.724Z,68.56
2022-07-26T04:37:44.127Z,68.54
2022-07-26T04:38:46.922Z,68.73
2022-07-26T04:39:54.732Z,68.54
2022-07-26T04:40:54.511Z,68.45
2022-07-26T04:41:57.326Z,68.48
2022-07-26T04:43:00.922Z,68.48
2022-07-26T04:44:04.388Z,68.37
2022-07-26T04:45:08.789Z,68.54
2022-07-26T04:46:12.168Z,68.42
2022-07-26T04:47:14.900Z,68.56
2022-07-26T04:48:17.572Z,69.17
2022-07-26T04:49:20.323Z,69.02
2022-07-26T04:50:23.514Z,68.58
2022-07-26T04:51:26.079Z,68.10
2022-07-26T04:52:28.691Z,67.94
2022-07-26T04:53:31.374Z,67.76
2022-07-26T04:54:33.968Z,68.09
2022-07-26T04:55:37.466Z,68.40
2022-07-26T04:56:40.491Z,68.37
2022-07-26T04:57:43.078Z,68.37
2022-07-26T04:58:45.973Z,68.44
2022-07-26T05:00:03.405Z,67.68
2022-07-26T05:01:10.303Z,67.45
2022-07-26T05:01:58.052Z,67.29
2022-07-26T05:03:01.183Z,67.49
2022-07-26T05:05:16.240Z,66.95
2022-07-26T05:06:20.162Z,67.11
2022-07-26T05:07:22.754Z,67.04
2022-07-26T05:08:25.387Z,66.96
2022-07-26T05:09:29.172Z,66.96
2022-07-26T05:10:34.158Z,66.81
2022-07-26T05:11:36.766Z,66.61
2022-07-26T05:12:39.487Z,66.80
2022-07-26T05:13:42.151Z,66.90
2022-07-26T05:14:44.923Z,66.84
2022-07-26T05:15:48.225Z,67.10
2022-07-26T05:16:53.668Z,66.75
2022-07-26T05:18:06.678Z,66.97
2022-07-26T05:19:09.461Z,67.16
2022-07-26T05:20:14.252Z,66.64
2022-07-26T05:21:17.954Z,66.60
2022-07-26T05:22:20.850Z,66.73
2022-07-26T05:23:23.564Z,66.64
2022-07-26T05:24:26.325Z,66.16
2022-07-26T05:25:28.929Z,65.82
2022-07-26T05:26:31.926Z,65.92
2022-07-26T05:27:34.617Z,65.98
2022-07-26T05:28:40.355Z,66.02
2022-07-26T05:29:43.552Z,66.73
2022-07-26T05:30:47.970Z,66.51
2022-07-26T05:31:50.709Z,66.34
2022-07-26T05:32:53.381Z,65.53
2022-07-26T05:33:56.094Z,65.66
2022-07-26T05:34:58.755Z,65.77
2022-07-26T05:36:01.342Z,64.93
2022-07-26T05:37:04.012Z,65.37
2022-07-26T05:38:06.686Z,65.43
2022-07-26T05:39:12.876Z,65.54
2022-07-26T05:40:14.550Z,65.25
2022-07-26T05:41:17.249Z,65.45
2022-07-26T05:42:20.046Z,65.71
2022-07-26T05:43:22.741Z,64.63
2022-07-26T05:44:25.334Z,64.26
2022-07-26T05:45:29.472Z,64.57
2022-07-26T05:46:32.517Z,64.74
2022-07-26T05:47:35.267Z,64.70
2022-07-26T05:49:50.406Z,63.44
2022-07-26T05:50:53.407Z,63.48
2022-07-26T05:52:01.074Z,63.47
2022-07-26T05:53:00.596Z,63.36
2022-07-26T05:54:03.558Z,62.68
2022-07-26T05:55:07.430Z,62.94
2022-07-26T05:56:10.259Z,64.64
2022-07-26T05:57:13.066Z,63.81
2022-07-26T05:58:15.746Z,62.67
2022-07-26T05:59:18.548Z,62.82
2022-07-26T06:00:21.523Z,62.71
2022-07-26T06:01:24.210Z,62.75
2022-07-26T06:02:27.225Z,62.30
2022-07-26T06:03:30.597Z,62.61
2022-07-26T06:04:33.590Z,62.55
2022-07-26T06:05:36.300Z,62.35
2022-07-26T06:06:39.187Z,61.95
2022-07-26T06:07:41.767Z,61.82
2022-07-26T06:08:44.462Z,62.13
2022-07-26T06:09:47.152Z,61.67
2022-07-26T06:10:50.334Z,61.23
2022-07-26T06:11:53.018Z,60.95
2022-07-26T06:12:55.739Z,61.17
2022-07-26T06:13:58.404Z,61.06
2022-07-26T06:15:01.401Z,61.39
2022-07-26T06:16:05.139Z,61.18
2022-07-26T06:17:07.865Z,60.42
2022-07-26T06:18:10.629Z,59.99
2022-07-26T06:19:13.369Z,60.40
2022-07-26T06:20:16.361Z,60.35
2022-07-26T06:21:19.130Z,60.59
2022-07-26T06:22:22.004Z,60.47
2022-07-26T06:23:31.893Z,60.29
2022-07-26T06:24:29.468Z,60.41
2022-07-26T06:25:32.183Z,60.61
2022-07-26T06:26:34.966Z,60.24
2022-07-26T06:27:37.637Z,59.40
2022-07-26T06:28:40.427Z,59.16
2022-07-26T06:29:43.009Z,59.05
2022-07-26T06:30:45.788Z,59.03
2022-07-26T06:31:48.545Z,58.91
2022-07-26T06:32:51.327Z,58.87
2022-07-26T06:33:53.999Z,58.86
2022-07-26T06:36:13.690Z,58.63
2022-07-26T06:37:16.299Z,58.20
2022-07-26T06:38:19.398Z,58.17
2022-07-26T06:39:21.974Z,57.65
2022-07-26T06:40:26.106Z,58.15
2022-07-26T06:41:29.205Z,58.68
2022-07-26T06:42:32.194Z,58.93
2022-07-26T06:43:36.152Z,58.58
2022-07-26T06:44:40.972Z,58.65
2022-07-26T06:45:43.943Z,58.96
2022-07-26T06:46:49.238Z,59.14
2022-07-26T06:47:52.069Z,58.75
2022-07-26T06:48:56.934Z,58.80
2022-07-26T06:50:01.431Z,58.59
2022-07-26T06:51:04.656Z,58.69
2022-07-26T06:52:07.669Z,59.08
2022-07-26T06:53:10.383Z,58.29
2022-07-26T06:54:14.305Z,57.98
2022-07-26T06:55:17.653Z,57.61
2022-07-26T06:56:21.265Z,57.60
2022-07-26T06:57:25.965Z,57.65
2022-07-26T06:58:28.920Z,57.65
2022-07-26T07:00:42.348Z,58.17
2022-07-26T07:01:59.645Z,57.61
2022-07-26T07:02:50.764Z,57.75
2022-07-26T07:03:53.487Z,57.72
2022-07-26T07:04:56.208Z,56.96
2022-07-26T07:05:58.832Z,56.65
2022-07-26T07:07:04.493Z,56.94
2022-07-26T07:08:07.351Z,56.79
2022-07-26T07:09:10.386Z,56.72
2022-07-26T07:10:15.223Z,55.78
2022-07-26T07:11:18.614Z,56.05
2022-07-26T07:12:22.849Z,55.43
2022-07-26T07:13:26.052Z,55.71
2022-07-26T07:14:28.857Z,56.21
2022-07-26T07:15:31.435Z,56.18
2022-07-26T07:16:34.266Z,55.26
2022-07-26T07:17:37.198Z,55.21
2022-07-26T07:18:39.879Z,55.52
2022-07-26T07:19:42.562Z,55.91
2022-07-26T07:20:45.343Z,56.10
2022-07-26T07:21:50.149Z,56.45
2022-07-26T07:22:53.023Z,56.04
2022-07-26T07:23:55.820Z,55.81
2022-07-26T07:24:58.584Z,54.58
2022-07-26T07:26:01.259Z,55.24
2022-07-26T07:27:04.318Z,54.45
2022-07-26T07:29:27.577Z,54.63
2022-07-26T07:30:32.640Z,54.32
2022-07-26T07:31:48.333Z,54.64
2022-07-26T07:32:39.895Z,54.76
2022-07-26T07:33:52.468Z,54.55
2022-07-26T07:34:48.172Z,54.61
2022-07-26T07:35:51.392Z,54.51
2022-07-26T07:36:54.717Z,54.78
2022-07-26T07:37:57.384Z,54.86
2022-07-26T07:39:04.427Z,55.04
2022-07-26T07:40:06.289Z,54.60
2022-07-26T07:41:09.129Z,54.31
2022-07-26T07:42:11.815Z,54.70
2022-07-26T07:43:16.373Z,54.39
2022-07-26T07:44:19.091Z,54.53
2022-07-26T07:45:21.885Z,53.92
2022-07-26T07:46:26.829Z,54.21
2022-07-26T07:47:34.455Z,54.18
2022-07-26T07:48:39.368Z,54.23
2022-07-26T07:49:42.594Z,54.60
2022-07-26T07:50:45.686Z,54.41
2022-07-26T07:51:48.567Z,54.48
2022-07-26T07:52:51.268Z,53.47
2022-07-26T07:53:57.296Z,54.43
2022-07-26T07:55:17.750Z,54.05
2022-07-26T07:56:04.339Z,53.23
2022-07-26T07:57:07.012Z,53.64
2022-07-26T07:58:09.706Z,53.30
2022-07-26T07:59:13.539Z,53.20
2022-07-26T08:00:18.718Z,53.49
2022-07-26T08:01:21.919Z,53.58
2022-07-26T08:02:24.756Z,53.73
2022-07-26T08:03:38.098Z,53.88
2022-07-26T08:04:32.061Z,54.00
2022-07-26T08:06:50.281Z,53.65
2022-07-26T08:07:50.180Z,53.57
2022-07-26T08:08:54.678Z,53.65
2022-07-26T08:09:57.455Z,54.09
2022-07-26T08:11:00.555Z,53.96
2022-07-26T08:12:03.919Z,53.10
2022-07-26T08:13:08.224Z,52.75
2022-07-26T08:14:12.963Z,52.46
2022-07-26T08:15:15.826Z,52.84
2022-07-26T08:16:20.953Z,53.29
2022-07-26T08:17:23.784Z,52.54
2022-07-26T08:18:28.390Z,51.82
2022-07-26T08:19:41.941Z,51.68
2022-07-26T08:20:36.213Z,51.22
2022-07-26T08:21:39.917Z,50.81
2022-07-26T08:22:42.737Z,50.77
2022-07-26T08:23:45.423Z,50.15
2022-07-26T08:24:48.110Z,50.41
2022-07-26T08:25:57.026Z,50.21
2022-07-26T08:26:55.473Z,50.02
2022-07-26T08:28:03.663Z,50.36
2022-07-26T08:29:02.891Z,50.76
2022-07-26T08:30:06.684Z,50.35
2022-07-26T08:31:09.500Z,50.25
2022-07-26T08:32:12.478Z,50.37
2022-07-26T08:33:15.281Z,50.14
2022-07-26T08:34:18.694Z,49.62
2022-07-26T08:35:21.491Z,49.36
2022-07-26T08:36:31.905Z,49.83
2022-07-26T08:38:40.952Z,48.49
2022-07-26T08:39:44.190Z,48.61
2022-07-26T08:40:46.986Z,48.51
2022-07-26T08:41:49.778Z,48.70
2022-07-26T08:42:54.257Z,48.80
2022-07-26T08:44:05.351Z,48.71
2022-07-26T08:45:09.035Z,48.40
2022-07-26T08:46:13.278Z,48.49
2022-07-26T08:47:18.191Z,49.20
2022-07-26T08:48:22.891Z,48.53
2022-07-26T08:49:25.631Z,47.75
2022-07-26T08:50:29.397Z,47.94
2022-07-26T08:51:32.261Z,47.67
2022-07-26T08:52:35.065Z,48.27
2022-07-26T08:54:50.172Z,48.27
2022-07-26T08:56:06.984Z,47.40
2022-07-26T08:57:01.475Z,46.93
2022-07-26T08:58:04.406Z,47.15
2022-07-26T08:59:20.189Z,47.58
2022-07-26T09:00:28.112Z,47.63
2022-07-26T09:01:31.331Z,47.97
2022-07-26T09:02:40.643Z,47.32
2022-07-26T09:04:54.931Z,47.32
2022-07-26T09:05:59.555Z,47.73
2022-07-26T09:07:08.925Z,48.11
2022-07-26T09:08:25.897Z,47.41
2022-07-26T09:09:29.091Z,47.67
2022-07-26T09:10:39.037Z,48.33
2022-07-26T09:11:40.456Z,48.20
2022-07-26T09:12:43.765Z,47.97
2022-07-26T09:15:10.442Z,48.36
2022-07-26T09:16:14.178Z,48.66
2022-07-26T09:17:18.783Z,47.62
2022-07-26T09:19:38.148Z,47.89
2022-07-26T09:20:41.173Z,48.10
2022-07-26T09:21:45.017Z,47.93
2022-07-26T09:23:02.414Z,48.46
2022-07-26T09:24:06.063Z,48.68
2022-07-26T09:26:31.835Z,48.11
2022-07-26T09:27:34.941Z,48.05
2022-07-26T09:28:37.525Z,48.21
2022-07-26T09:29:43.726Z,47.98
2022-07-26T09:32:15.348Z,47.16
2022-07-26T09:33:19.737Z,46.85
2022-07-26T09:34:25.526Z,47.29
2022-07-26T09:35:50.982Z,47.12
2022-07-26T09:38:03.017Z,47.51
2022-07-26T09:39:06.068Z,46.91
2022-07-26T09:40:13.882Z,45.64
2022-07-26T09:41:24.849Z,44.95
2022-07-26T09:42:29.479Z,45.69
2022-07-26T09:43:38.399Z,45.74
2022-07-26T09:44:48.102Z,45.36
2022-07-26T09:45:45.610Z,45.46
2022-07-26T09:46:56.405Z,45.48
2022-07-26T09:47:59.298Z,44.76
2022-07-26T09:49:18.438Z,44.64
2022-07-26T09:50:28.234Z,45.25
2022-07-26T09:51:37.312Z,45.22
2022-07-26T09:52:40.244Z,45.78
2022-07-26T09:53:46.745Z,45.97
2022-07-26T09:54:49.480Z,45.65
2022-07-26T09:55:54.946Z,45.91
2022-07-26T09:56:57.856Z,45.73
2022-07-26T09:58:00.644Z,45.52
2022-07-26T09:59:03.314Z,44.78
2022-07-26T10:01:18.519Z,45.09
2022-07-26T10:02:22.795Z,44.61
2022-07-26T10:03:25.561Z,44.36
2022-07-26T10:04:28.252Z,44.66
2022-07-26T10:05:32.243Z,44.95
2022-07-26T10:06:35.349Z,44.87
2022-07-26T10:07:38.031Z,45.53
2022-07-26T10:08:41.476Z,45.25
2022-07-26T10:11:03.993Z,45.43
2022-07-26T10:12:07.735Z,45.24
2022-07-26T10:13:10.324Z,45.08
2022-07-26T10:15:50.535Z,45.27
2022-07-26T10:16:53.606Z,45.48
2022-07-26T10:17:56.625Z,45.76
2022-07-26T10:18:59.304Z,45.26
2022-07-26T10:20:15.147Z,46.00
2022-07-26T10:21:18.586Z,45.06
2022-07-26T10:22:32.707Z,44.51
2022-07-26T10:23:43.022Z,44.13
2022-07-26T10:24:45.719Z,43.74
2022-07-26T10:25:48.411Z,43.41
2022-07-26T10:26:53.073Z,43.57
2022-07-26T10:27:56.453Z,42.35
2022-07-26T10:29:20.291Z,41.80
2022-07-26T10:30:33.544Z,40.70
2022-07-26T10:31:32.486Z,41.21
2022-07-26T10:32:35.263Z,41.68
2022-07-26T10:33:41.332Z,42.07
2022-07-26T10:34:44.050Z,42.42
2022-07-26T10:35:46.747Z,41.92
2022-07-26T10:36:57.538Z,41.72
2022-07-26T10:39:13.509Z,42.35
2022-07-26T10:40:18.812Z,42.38
2022-07-26T10:41:36.630Z,42.90
2022-07-26T10:42:44.722Z,41.95
2022-07-26T10:44:14.022Z,41.52
2022-07-26T10:46:30.446Z,42.95
2022-07-26T10:47:35.400Z,42.73
2022-07-26T10:48:58.327Z,42.80
2022-07-26T10:50:01.179Z,42.78
2022-07-26T10:51:06.358Z,42.96
2022-07-26T10:52:20.039Z,42.92
2022-07-26T10:55:03.009Z,43.33
2022-07-26T10:56:06.084Z,43.25
2022-07-26T10:57:08.858Z,43.16
2022-07-26T10:58:11.527Z,43.62
2022-07-26T10:59:20.281Z,43.84
2022-07-26T11:00:24.534Z,43.77
2022-07-26T11:01:41.483Z,43.71
2022-07-26T11:02:58.719Z,43.63
2022-07-26T11:04:01.648Z,42.65
2022-07-26T11:05:10.851Z,42.24
2022-07-26T11:06:17.277Z,42.11
2022-07-26T11:07:19.889Z,42.10
2022-07-26T11:08:26.339Z,41.59
2022-07-26T11:09:34.058Z,40.92
2022-07-26T11:10:45.626Z,41.16
2022-07-26T11:11:48.226Z,40.84
2022-07-26T11:14:18.531Z,40.84
2022-07-26T11:15:22.340Z,40.23
2022-07-26T11:16:26.943Z,40.42
2022-07-26T11:17:30.034Z,40.99
2022-07-26T11:18:36.910Z,40.60
2022-07-26T11:19:39.620Z,40.74
2022-07-26T11:20:45.828Z,41.03
2022-07-26T11:21:58.395Z,40.52
2022-07-26T11:23:01.193Z,40.76
2022-07-26T11:24:04.455Z,40.66
2022-07-26T11:25:08.192Z,40.69
2022-07-26T11:26:17.816Z,41.01
2022-07-26T11:27:20.475Z,41.02
2022-07-26T11:28:23.301Z,41.51
2022-07-26T11:29:38.299Z,41.27
2022-07-26T11:30:33.103Z,41.14
2022-07-26T11:31:55.576Z,41.38
2022-07-26T11:32:52.786Z,41.56
2022-07-26T11:33:55.590Z,41.87
2022-07-26T11:34:59.371Z,41.41
2022-07-26T11:36:02.669Z,41.51
2022-07-26T11:37:05.369Z,41.77
2022-07-26T11:38:12.101Z,41.60
2022-07-26T11:39:21.354Z,41.60
2022-07-26T11:40:46.265Z,42.02
2022-07-26T11:41:49.252Z,41.39
2022-07-26T11:42:54.672Z,41.51
2022-07-26T11:44:02.090Z,41.63
2022-07-26T11:45:02.553Z,42.01
2022-07-26T11:46:05.816Z,41.48
2022-07-26T11:47:12.443Z,41.57
2022-07-26T11:48:15.035Z,40.99
2022-07-26T11:50:32.102Z,40.37
2022-07-26T11:51:34.816Z,40.71
2022-07-26T11:52:37.585Z,40.12
2022-07-26T11:53:40.256Z,40.55
2022-07-26T11:54:47.795Z,40.20
2022-07-26T11:55:50.507Z,40.24
2022-07-26T11:56:55.488Z,40.18
2022-07-26T11:59:25.803Z,40.06
2022-07-26T12:00:28.714Z,39.94
2022-07-26T12:01:31.598Z,40.18
2022-07-26T12:02:34.332Z,39.41
2022-07-26T12:03:38.007Z,40.11
2022-07-26T12:04:42.127Z,39.70
2022-07-26T12:05:48.761Z,39.32
2022-07-26T12:06:52.541Z,39.89
2022-07-26T12:07:59.800Z,39.94
2022-07-26T12:09:02.523Z,40.78
2022-07-26T12:10:06.418Z,41.30
2022-07-26T12:11:09.805Z,41.47
2022-07-26T12:12:24.879Z,41.30
2022-07-26T12:13:27.699Z,41.51
2022-07-26T12:14:33.908Z,41.60
2022-07-26T12:16:56.595Z,41.54
2022-07-26T12:17:59.731Z,41.75
2022-07-26T12:19:03.725Z,41.78
2022-07-26T12:20:15.294Z,41.55
2022-07-26T12:21:19.885Z,41.53
2022-07-26T12:22:23.083Z,41.43
2022-07-26T12:23:26.266Z,41.79
2022-07-26T12:27:32.295Z,41.14
2022-07-26T12:28:41.729Z,41.01
2022-07-26T12:29:45.431Z,41.34
2022-07-26T12:30:48.917Z,41.38
2022-07-26T12:32:12.570Z,41.64
2022-07-26T12:33:14.596Z,41.29
2022-07-26T12:34:20.663Z,40.88
2022-07-26T12:35:33.084Z,40.56
2022-07-26T12:36:36.181Z,39.79
2022-07-26T12:37:48.842Z,40.08
2022-07-26T12:38:51.825Z,40.16
2022-07-26T12:41:13.881Z,39.76
2022-07-26T12:42:33.056Z,40.17
2022-07-26T12:43:41.260Z,39.80
2022-07-26T12:44:43.968Z,39.62
2022-07-26T12:46:57.338Z,38.99
2022-07-26T12:48:01.242Z,39.22
2022-07-26T12:49:04.205Z,39.36
2022-07-26T12:50:08.595Z,39.15
2022-07-26T12:51:11.374Z,39.01
2022-07-26T12:52:15.079Z,39.40
2022-07-26T12:53:17.661Z,39.38
2022-07-26T12:54:20.747Z,38.82
2022-07-26T12:55:23.314Z,38.61
2022-07-26T12:56:27.819Z,38.88
2022-07-26T12:57:30.480Z,38.84
2022-07-26T12:58:33.060Z,39.22
2022-07-26T12:59:38.533Z,39.45
2022-07-26T13:00:40.527Z,39.64
2022-07-26T13:01:43.258Z,39.79
2022-07-26T13:02:46.116Z,39.93
2022-07-26T13:03:48.945Z,40.13
2022-07-26T13:04:54.330Z,40.50
2022-07-26T13:05:56.367Z,40.71
2022-07-26T13:06:59.430Z,40.86
2022-07-26T13:08:02.274Z,40.81
2022-07-26T13:10:33.067Z,40.93
2022-07-26T13:11:20.347Z,40.41
2022-07-26T13:12:23.058Z,40.88
2022-07-26T13:13:25.733Z,40.31
2022-07-26T13:14:28.335Z,40.28
2022-07-26T13:15:37.180Z,40.32
2022-07-26T13:16:36.765Z,40.45
2022-07-26T13:17:39.586Z,40.28
2022-07-26T13:18:42.262Z,40.45
2022-07-26T13:19:44.955Z,40.39
2022-07-26T13:20:47.937Z,40.46
2022-07-26T13:21:53.102Z,40.50
2022-07-26T13:22:55.334Z,40.73
2022-07-26T13:23:58.225Z,40.71
2022-07-26T13:25:03.499Z,40.66
2022-07-26T13:26:09.300Z,40.21
2022-07-26T13:27:12.282Z,39.53
2022-07-26T13:28:15.773Z,40.20
2022-07-26T13:29:19.184Z,40.07
2022-07-26T13:30:24.538Z,40.35
2022-07-26T13:31:27.779Z,39.76
2022-07-26T13:32:32.610Z,39.63
2022-07-26T13:33:35.588Z,39.11
2022-07-26T13:34:38.790Z,38.29
2022-07-26T13:35:41.639Z,37.78
2022-07-26T13:36:47.117Z,37.39
2022-07-26T13:37:52.442Z,36.54
2022-07-26T13:38:58.028Z,36.37
2022-07-26T13:40:02.236Z,36.13
2022-07-26T13:41:05.966Z,35.50
2022-07-26T13:42:10.895Z,34.71
2022-07-26T13:43:14.152Z,34.40
2022-07-26T13:44:17.072Z,33.54
2022-07-26T13:46:33.823Z,31.89
2022-07-26T13:47:38.803Z,31.81
2022-07-26T13:49:00.202Z,31.50
2022-07-26T13:49:52.839Z,30.90
2022-07-26T13:50:59.256Z,30.40
2022-07-26T13:52:03.975Z,30.31
2022-07-26T13:53:06.792Z,30.14
2022-07-26T13:54:10.109Z,30.44
2022-07-26T13:55:13.011Z,30.50
2022-07-26T13:56:16.356Z,30.66
2022-07-26T13:57:19.076Z,30.09
2022-07-26T13:58:21.963Z,30.30
2022-07-26T13:59:25.183Z,30.53
2022-07-26T14:00:29.296Z,30.44
2022-07-26T14:01:43.451Z,30.06
2022-07-26T14:02:38.615Z,30.09
2022-07-26T14:03:41.315Z,29.52
2022-07-26T14:04:43.894Z,29.69
2022-07-26T14:05:46.485Z,29.72
2022-07-26T14:06:49.354Z,29.76
2022-07-26T14:07:52.142Z,29.66
2022-07-26T14:08:54.982Z,29.58
2022-07-26T14:09:57.683Z,28.56
2022-07-26T14:11:00.348Z,28.83
2022-07-26T14:12:03.870Z,28.86
2022-07-26T14:13:07.288Z,29.30
2022-07-26T14:14:10.155Z,29.50
2022-07-26T14:15:19.518Z,29.45
2022-07-26T14:16:19.226Z,29.14
2022-07-26T14:17:21.974Z,29.11
2022-07-26T14:18:24.672Z,29.23
2022-07-26T14:19:27.419Z,29.15
2022-07-26T14:20:30.486Z,29.46
2022-07-26T14:21:43.517Z,29.47
2022-07-26T14:22:38.720Z,29.47
2022-07-26T14:23:41.435Z,29.15
2022-07-26T14:24:44.174Z,28.66
2022-07-26T14:25:46.878Z,28.44
2022-07-26T14:26:49.853Z,28.31
2022-07-26T14:27:53.168Z,28.39
2022-07-26T14:28:55.878Z,28.28
2022-07-26T14:29:58.531Z,28.35
2022-07-26T14:31:01.516Z,28.13
2022-07-26T14:32:04.917Z,27.96
2022-07-26T14:33:07.944Z,28.11